Latest Weather Observations for Woolshed

IDQ60801

Issued at 3:02 pm EST Saturday 20 December 2014 (issued every 30 minutes, with the page automatically refreshed every 10 minutes)

About weather observations | Map of weather stations | Latest weather observations for QLD | Other Formats
Station Details ID: 033307 Name: WOOLSHED Lat: -19.42 Lon: 146.54 Height: 556.04 m
Data from the previous 72 hours. | See also: Recent months at Woolshed
Date/Time
EST
Temp
°C
App
Temp
°C
Dew
Point
Rel
Hum
%
Delta-T
°C
Wind Press
QNH
hPa
Press
MSL
hPa
Rain
since 9 am
mm
Dir
 
Spd
km/h
Gust
km/h
Spd
kts
Gust
kts
20/03:00pm 28.0 29.8 20.3 63 5.2 NNE 11 20 6 11 1012.1 1008.5 0.0
20/02:30pm 28.4 30.4 20.7 63 5.2 NE 11 19 6 10 1012.5 1008.8 0.0
20/02:00pm 28.0 29.8 20.3 63 5.2 NE 11 19 6 10 1012.8 1009.1 0.0
20/01:30pm 27.5 29.0 19.8 63 5.1 NE 11 20 6 11 1013.1 1009.5 0.0
20/01:00pm 27.1 28.4 19.4 62 5.1 NE 11 19 6 10 1013.8 1010.2 0.0
20/12:30pm 27.7 29.3 20.0 63 5.1 NE 11 17 6 9 1014.2 1010.6 0.0
20/12:00pm 27.6 29.9 19.9 63 5.1 NE 7 13 4 7 1014.7 1011.1 0.0
20/11:30am 27.4 29.6 19.7 63 5.1 NNE 7 15 4 8 1015.1 1011.5 0.0
20/11:00am 26.9 28.6 19.3 63 5.0 NNE 9 20 5 11 1015.4 1011.8 0.0
20/10:30am 26.4 27.9 18.8 63 5.0 ENE 9 19 5 10 1015.4 1011.8 0.0
20/10:00am 24.9 25.7 17.4 63 4.8 NE 9 15 5 8 1015.6 1012.0 0.0
20/09:30am 25.8 27.4 18.2 63 4.9 NE 7 13 4 7 1015.7 1012.1 0.0
20/09:00am 24.3 25.5 16.8 63 4.7 NNE 6 11 3 6 1015.6 1012.0 3.0
20/08:30am 23.4 24.3 16.0 63 4.6 NE 6 11 3 6 1015.5 1011.9 3.0
20/08:00am 23.1 23.8 15.7 63 4.6 ENE 6 11 3 6 1015.2 1011.6 3.0
20/07:30am 23.1 23.8 15.7 63 4.6 NE 6 11 3 6 1015.1 1011.5 3.0
20/07:00am 22.6 23.2 15.2 63 4.5 NE 6 7 3 4 1014.7 1011.1 3.0
20/06:30am 22.3 23.1 14.9 63 4.5 NE 4 7 2 4 1014.6 1011.0 3.0
20/06:00am 21.7 22.4 14.4 63 4.4 NE 4 4 2 2 1014.0 1010.4 3.0
20/05:30am 21.6 23.0 14.3 63 4.4 CALM 0 2 0 1 1013.7 1010.1 3.0
20/05:00am 21.7 22.4 14.4 63 4.4 NNE 4 7 2 4 1013.4 1009.8 3.0
20/04:30am 21.8 22.1 14.4 63 4.4 NE 6 9 3 5 1013.4 1009.8 3.0
20/04:00am 21.8 22.5 14.4 63 4.4 NE 4 7 2 4 1013.2 1009.6 3.0
20/03:30am 21.8 22.1 14.4 63 4.4 NE 6 9 3 5 1013.2 1009.6 3.0
20/03:00am 21.8 22.1 14.4 63 4.4 NE 6 9 3 5 1013.4 1009.8 3.0
20/02:30am 21.8 22.1 14.4 63 4.4 NE 6 9 3 5 1013.6 1010.0 3.0
20/02:00am 21.8 22.1 14.4 63 4.4 NE 6 9 3 5 1013.7 1010.1 3.0
20/01:30am 21.7 22.0 14.4 63 4.4 NNE 6 11 3 6 1013.8 1010.2 3.0
20/01:00am 22.0 22.3 14.6 63 4.5 NE 6 9 3 5 1014.1 1010.5 3.0
20/12:30am 22.0 22.7 14.6 63 4.5 NE 4 9 2 5 1014.4 1010.7 3.0
20/12:00am 22.1 22.3 14.7 63 4.5 NE 7 13 4 7 1014.8 1011.2 3.0
 
Date/Time
EST
Temp
°C
App
Temp
°C
Dew
Point
Rel
Hum
%
Delta-T
°C
Wind Press
QNH
hPa
Press
MSL
hPa
Rain
since 9 am
mm
Dir
 
Spd
km/h
Gust
km/h
Spd
kts
Gust
kts
19/11:30pm 21.9 22.0 14.5 63 4.5 NNE 7 15 4 8 1014.9 1011.3 3.0
19/11:00pm 21.6 22.2 14.3 63 4.4 NE 4 7 2 4 1015.3 1011.7 3.0
19/10:30pm 21.3 21.4 14.0 63 4.3 NNE 6 9 3 5 1015.1 1011.5 3.0
19/10:00pm 21.9 22.2 14.5 63 4.5 NE 6 9 3 5 1015.1 1011.5 3.0
19/09:30pm 22.1 22.5 14.7 63 4.5 NNE 6 9 3 5 1015.1 1011.5 1.4
19/09:00pm 22.1 22.5 14.7 63 4.5 NNE 6 9 3 5 1014.8 1011.2 1.4
19/08:30pm 23.0 23.5 15.6 63 4.6 NNE 7 13 4 7 1014.7 1011.1 0.0
19/08:00pm 23.0 23.5 15.6 63 4.6 NNE 7 13 4 7 1014.6 1011.0 0.0
19/07:30pm 23.2 23.8 15.8 63 4.6 NNE 7 17 4 9 1014.5 1010.8 0.0
19/07:00pm 23.6 23.9 16.1 62 4.7 NNE 9 15 5 8 1014.1 1010.5 0.0
19/06:30pm 24.2 25.1 16.7 63 4.7 NNE 7 13 4 7 1013.8 1010.2 0.0
19/06:00pm 25.0 26.3 17.5 63 4.8 NNE 7 15 4 8 1013.4 1009.8 0.0
19/05:30pm 26.3 27.3 18.7 63 5.0 NE 11 19 6 10 1012.8 1009.1 0.0
19/05:00pm 27.3 29.1 19.6 62 5.1 NE 9 17 5 9 1012.2 1008.6 0.0
19/04:30pm 28.2 30.1 20.5 63 5.2 NNE 11 19 6 10 1012.0 1008.4 0.0
19/04:00pm 28.7 31.2 21.0 63 5.2 NE 9 15 5 8 1012.2 1008.6 0.0
19/03:30pm 28.7 31.2 21.0 63 5.2 NE 9 24 5 13 1012.3 1008.7 0.0
19/03:00pm 28.1 30.3 20.4 63 5.2 NNE 9 15 5 8 1012.6 1008.9 0.0
19/02:30pm 29.1 31.8 21.3 62 5.3 NNE 9 17 5 9 1012.8 1009.1 0.0
19/02:00pm 29.2 31.9 21.4 63 5.3 NNE 9 20 5 11 1013.2 1009.6 0.0
19/01:30pm 28.4 30.7 20.7 63 5.2 NNE 9 19 5 10 1013.4 1009.8 0.0
19/01:00pm 27.8 29.5 20.1 63 5.1 NE 11 22 6 12 1013.7 1010.1 0.0
19/12:30pm 28.8 31.3 21.1 63 5.2 NE 9 19 5 10 1014.0 1010.4 0.0
19/12:00pm 28.9 31.1 21.1 62 5.3 NNE 11 24 6 13 1014.2 1010.6 0.0
19/11:30am 27.9 28.9 20.2 63 5.2 NE 15 24 8 13 1014.6 1011.0 0.0
19/11:00am 27.6 29.2 19.9 63 5.1 NE 11 24 6 13 1014.9 1011.3 0.0
19/10:30am 26.6 27.8 19.0 63 5.0 NE 11 24 6 13 1015.1 1011.5 0.0
19/10:00am 25.7 26.5 18.1 63 4.9 NE 11 22 6 12 1015.2 1011.6 0.0
19/09:30am 24.5 24.8 17.0 63 4.7 NNE 11 19 6 10 1015.0 1011.4 0.0
19/09:00am 23.8 23.8 16.3 63 4.7 NNE 11 20 6 11 1015.0 1011.4 0.0
19/08:30am 23.3 23.2 15.9 63 4.6 NNE 11 19 6 10 1015.2 1011.6 0.0
19/08:00am 22.4 21.9 15.0 63 4.5 NE 11 19 6 10 1015.0 1011.4 0.0
19/07:30am 22.3 22.6 14.9 63 4.5 NE 7 19 4 10 1015.0 1011.4 0.0
19/07:00am 22.1 21.9 14.7 63 4.5 NNE 9 15 5 8 1014.8 1011.2 0.0
19/06:30am 22.0 22.3 14.6 63 4.5 NNE 6 11 3 6 1014.5 1010.8 0.0
19/06:00am 21.7 21.8 14.4 63 4.4 NNE 7 13 4 7 1014.1 1010.5 0.0
19/05:30am 21.6 22.2 14.3 63 4.4 NNE 4 7 2 4 1013.6 1010.0 0.0
19/05:00am 21.5 21.5 14.2 63 4.4 NE 7 13 4 7 1013.0 1009.4 0.0
19/04:30am 21.7 22.0 14.4 63 4.4 NNE 6 9 3 5 1012.8 1009.1 0.0
19/04:00am 21.7 21.8 14.4 63 4.4 NE 7 15 4 8 1012.5 1008.8 0.0
19/03:30am 21.4 21.6 14.1 63 4.4 NE 6 9 3 5 1012.6 1008.9 0.0
19/03:00am 21.3 21.8 14.0 63 4.3 NNE 4 9 2 5 1012.9 1009.2 0.0
19/02:30am 21.3 22.2 14.0 63 4.3 NE 2 6 1 3 1013.4 1009.8 0.0
19/02:00am 21.0 22.2 13.7 63 4.3 CALM 0 0 0 0 1013.8 1010.2 0.0
19/01:30am 20.8 21.9 13.5 63 4.3 CALM 0 4 0 2 1014.5 1010.8 0.0
19/01:00am 20.6 21.6 13.3 63 4.3 CALM 0 0 0 0 1014.9 1011.3 0.0
19/12:30am 20.7 21.8 13.4 63 4.3 CALM 0 0 0 0 1015.1 1011.5 0.0
19/12:00am 20.6 21.6 13.3 63 4.3 CALM 0 0 0 0 1015.6 1012.0 0.0
 
Date/Time
EST
Temp
°C
App
Temp
°C
Dew
Point
Rel
Hum
%
Delta-T
°C
Wind Press
QNH
hPa
Press
MSL
hPa
Rain
since 9 am
mm
Dir
 
Spd
km/h
Gust
km/h
Spd
kts
Gust
kts
18/11:30pm 21.1 22.3 13.8 63 4.3 CALM 0 0 0 0 1015.9 1012.3 0.0
18/11:00pm 21.7 23.1 14.4 63 4.4 CALM 0 0 0 0 1016.0 1012.4 0.0
18/10:30pm 22.4 23.6 15.0 63 4.5 ESE 2 6 1 3 1016.4 1012.8 0.0
18/10:00pm 22.8 23.8 15.4 63 4.5 W 4 13 2 7 1016.3 1012.7 0.0
18/09:30pm 22.2 22.0 14.8 63 4.5 NNE 9 19 5 10 1014.6 1011.0 0.0
18/09:00pm 22.3 21.8 14.9 63 4.5 NNE 11 19 6 10 1014.5 1010.8 0.0
18/08:30pm 22.3 22.2 14.9 63 4.5 NNE 9 19 5 10 1014.1 1010.5 0.0
18/08:00pm 22.5 22.5 15.1 63 4.5 NNE 9 19 5 10 1013.8 1010.2 0.0
18/07:30pm 22.7 22.7 15.3 63 4.5 NNE 9 22 5 12 1013.5 1009.9 0.0
18/07:00pm 23.0 22.8 15.6 63 4.6 NNE 11 22 6 12 1013.3 1009.7 0.0
18/06:30pm 23.4 23.3 16.0 63 4.6 NNE 11 22 6 12 1012.8 1009.1 0.0
18/06:00pm 24.1 23.5 16.6 63 4.7 NNE 15 26 8 14 1012.3 1008.7 0.0
18/05:30pm 24.8 25.2 17.3 63 4.8 NE 11 24 6 13 1012.0 1008.4 0.0
18/05:00pm 26.5 27.2 18.9 63 5.0 NNE 13 22 7 12 1012.0 1008.4 0.0
18/04:30pm 26.8 27.7 19.2 63 5.0 NNE 13 24 7 13 1011.4 1007.8 0.0
18/04:00pm 27.4 28.1 19.7 63 5.1 NNE 15 30 8 16 1011.3 1007.7 0.0
18/03:30pm 27.7 28.6 20.0 63 5.1 NNE 15 26 8 14 1011.6 1008.0 0.0
18/03:00pm 28.9 30.7 21.1 62 5.3 NE 13 28 7 15 1012.0 1008.4 0.0
18/02:30pm 29.0 31.2 21.2 62 5.3 NNE 11 22 6 12 1012.7 1009.0 0.0
18/02:00pm 28.4 29.6 20.7 63 5.2 NNE 15 26 8 14 1013.0 1009.4 0.0
18/01:30pm 29.2 31.1 21.4 63 5.3 NNE 13 26 7 14 1013.4 1009.8 0.0
18/01:00pm 28.9 31.1 21.1 62 5.3 NNE 11 22 6 12 1013.7 1010.1 0.0
18/12:30pm 28.4 30.0 20.7 63 5.2 NE 13 20 7 11 1013.8 1010.2 0.0
18/12:00pm 29.4 31.8 21.6 63 5.3 NE 11 22 6 12 1014.1 1010.5 0.0
18/11:30am 28.9 31.1 21.1 62 5.3 NE 11 24 6 13 1014.5 1010.8 0.0
18/11:00am 28.4 30.4 20.7 63 5.2 NE 11 24 6 13 1014.6 1011.0 0.0
18/10:30am 27.9 29.6 20.2 63 5.2 NNE 11 20 6 11 1015.0 1011.4 0.0
18/10:00am 27.6 29.6 19.9 63 5.1 NNE 9 20 5 11 1015.1 1011.5 0.0
18/09:30am 26.7 27.1 19.1 63 5.0 NE 15 30 8 16 1014.9 1011.3 0.0
18/09:00am 26.2 27.2 18.6 63 4.9 NNE 11 24 6 13 1015.0 1011.4 0.0
18/08:30am 25.0 24.8 17.5 63 4.8 NE 15 22 8 12 1015.0 1011.4 0.0
18/08:00am 24.4 25.0 16.9 63 4.7 NNE 9 22 5 12 1014.8 1011.2 0.0
18/07:30am 23.5 23.4 16.1 63 4.6 NNE 11 26 6 14 1014.7 1011.1 0.0
18/07:00am 22.9 23.4 15.5 63 4.5 NNE 7 15 4 8 1014.4 1010.7 0.0
18/06:30am 22.1 22.3 14.7 63 4.5 NNE 7 15 4 8 1013.9 1010.3 0.0
18/06:00am 21.6 20.9 14.3 63 4.4 NNE 11 17 6 9 1013.3 1009.7 0.0
18/05:30am 21.6 20.9 14.3 63 4.4 NNE 11 19 6 10 1012.9 1009.2 0.0
18/05:00am 21.6 20.9 14.3 63 4.4 NNE 11 20 6 11 1012.3 1008.7 0.0
18/04:30am 21.5 21.1 14.2 63 4.4 NNE 9 15 5 8 1012.0 1008.4 0.0
18/04:00am 21.6 21.6 14.3 63 4.4 NNE 7 19 4 10 1012.0 1008.4 0.0
18/03:30am 21.5 21.1 14.2 63 4.4 NNE 9 19 5 10 1011.7 1008.1 0.0
18/03:00am 21.5 21.1 14.2 63 4.4 NNE 9 15 5 8 1011.7 1008.1 0.0
18/02:30am 21.3 21.2 14.0 63 4.3 NNE 7 15 4 8 1011.9 1008.3 0.0
18/02:00am 21.5 21.5 14.2 63 4.4 NNE 7 15 4 8 1012.1 1008.5 0.0
18/01:30am 21.4 21.6 14.1 63 4.4 N 6 11 3 6 1012.6 1008.9 0.0
18/01:00am 21.7 22.0 14.4 63 4.4 N 6 13 3 7 1012.8 1009.1 0.0
18/12:30am 21.9 21.6 14.5 63 4.5 NNE 9 20 5 11 1012.7 1009.0 0.0
18/12:00am 22.3 22.2 14.9 63 4.5 NNE 9 20 5 11 1013.0 1009.4 0.0
 
Date/Time
EST
Temp
°C
App
Temp
°C
Dew
Point
Rel
Hum
%
Delta-T
°C
Wind Press
QNH
hPa
Press
MSL
hPa
Rain
since 9 am
mm
Dir
 
Spd
km/h
Gust
km/h
Spd
kts
Gust
kts
17/11:30pm 22.3 22.6 14.9 63 4.5 NNE 7 15 4 8 1013.1 1009.5 0.0
17/11:00pm 22.5 22.8 15.1 63 4.5 NNE 7 15 4 8 1013.5 1009.9 0.0
17/10:30pm 22.5 22.8 15.1 63 4.5 NE 7 15 4 8 1013.5 1009.9 0.0
17/10:00pm 22.6 23.0 15.2 63 4.5 NE 7 20 4 11 1013.3 1009.7 0.0
17/09:30pm 22.7 22.7 15.3 63 4.5 NNE 9 19 5 10 1013.0 1009.4 0.0
17/09:00pm 22.7 22.3 15.3 63 4.5 NNE 11 24 6 13 1012.7 1009.0 0.0
17/08:30pm 22.9 22.2 15.5 63 4.5 NNE 13 22 7 12 1012.0 1008.4 0.0
17/08:00pm 23.4 23.3 16.0 63 4.6 NE 11 22 6 12 1011.8 1008.2 0.0
17/07:30pm 23.7 23.7 16.2 63 4.7 NE 11 20 6 11 1011.4 1007.8 0.0
17/07:00pm 24.0 24.1 16.5 63 4.7 NE 11 22 6 12 1011.6 1008.0 0.0
17/06:30pm 24.3 24.5 16.8 63 4.7 NE 11 20 6 11 1011.2 1007.5 0.0
17/06:00pm 24.8 25.2 17.3 63 4.8 NE 11 20 6 11 1010.9 1007.2 0.0
17/05:30pm 25.6 26.3 18.0 63 4.9 NNE 11 20 6 11 1010.6 1006.9 0.0
17/05:00pm 27.0 28.0 19.4 63 5.0 NNE 13 22 7 12 1010.0 1006.4 0.0
17/04:30pm 27.4 28.1 19.7 63 5.1 NNE 15 28 8 15 1009.8 1006.2 0.0
17/04:00pm 28.5 30.5 20.8 63 5.2 NNE 11 20 6 11 1010.0 1006.4 0.0
17/03:30pm 28.8 30.6 21.1 63 5.2 NNE 13 24 7 13 1010.2 1006.6 0.0

Other Formats:

Comma delimited format used in spreadsheet applications
http://www.bom.gov.au/fwo/IDQ60801/IDQ60801.95293.axf

JavaScript Object Notation format (JSON) in row-major order
http://www.bom.gov.au/fwo/IDQ60801/IDQ60801.95293.json